sensor_id;sensor_type;location;lat;lon;timestamp;P1;durP1;ratioP1;P2;durP2;ratioP2
14474;SDS011;7323;50.848;4.334;2022-09-12T00:02:25;9.53;;;8.47;;
14474;SDS011;7323;50.848;4.334;2022-09-12T00:04:50;9.53;;;8.57;;
14474;SDS011;7323;50.848;4.334;2022-09-12T00:07:16;9.90;;;8.83;;
14474;SDS011;7323;50.848;4.334;2022-09-12T00:09:42;10.40;;;9.03;;
14474;SDS011;7323;50.848;4.334;2022-09-12T00:12:07;10.30;;;9.17;;
14474;SDS011;7323;50.848;4.334;2022-09-12T00:14:33;10.20;;;9.17;;
14474;SDS011;7323;50.848;4.334;2022-09-12T00:16:59;9.70;;;8.70;;
14474;SDS011;7323;50.848;4.334;2022-09-12T00:19:26;13.03;;;9.33;;
14474;SDS011;7323;50.848;4.334;2022-09-12T00:21:53;9.93;;;8.93;;
14474;SDS011;7323;50.848;4.334;2022-09-12T00:24:18;11.37;;;8.23;;
14474;SDS011;7323;50.848;4.334;2022-09-12T00:26:46;10.90;;;9.33;;
14474;SDS011;7323;50.848;4.334;2022-09-12T00:29:16;9.13;;;8.20;;
14474;SDS011;7323;50.848;4.334;2022-09-12T00:31:44;11.57;;;8.53;;
14474;SDS011;7323;50.848;4.334;2022-09-12T00:34:11;9.83;;;8.83;;
14474;SDS011;7323;50.848;4.334;2022-09-12T00:36:38;10.93;;;9.00;;
14474;SDS011;7323;50.848;4.334;2022-09-12T00:39:04;9.60;;;8.60;;
14474;SDS011;7323;50.848;4.334;2022-09-12T00:47:04;9.30;;;8.30;;
14474;SDS011;7323;50.848;4.334;2022-09-12T00:52:28;10.27;;;9.27;;
14474;SDS011;7323;50.848;4.334;2022-09-12T00:55:25;12.10;;;9.00;;
14474;SDS011;7323;50.848;4.334;2022-09-12T01:00:40;10.70;;;9.43;;
14474;SDS011;7323;50.848;4.334;2022-09-12T01:05:40;10.33;;;9.27;;
14474;SDS011;7323;50.848;4.334;2022-09-12T01:08:10;10.97;;;9.23;;
14474;SDS011;7323;50.848;4.334;2022-09-12T01:10:37;10.03;;;9.03;;
14474;SDS011;7323;50.848;4.334;2022-09-12T01:13:06;10.43;;;8.83;;
14474;SDS011;7323;50.848;4.334;2022-09-12T01:15:35;10.43;;;9.27;;
14474;SDS011;7323;50.848;4.334;2022-09-12T01:20:35;10.17;;;9.10;;
14474;SDS011;7323;50.848;4.334;2022-09-12T01:34:30;12.70;;;10.73;;
14474;SDS011;7323;50.848;4.334;2022-09-12T01:37:08;11.87;;;10.27;;
14474;SDS011;7323;50.848;4.334;2022-09-12T01:45:26;12.20;;;10.07;;
14474;SDS011;7323;50.848;4.334;2022-09-12T01:47:58;10.83;;;9.73;;
14474;SDS011;7323;50.848;4.334;2022-09-12T01:50:33;13.40;;;10.13;;
14474;SDS011;7323;50.848;4.334;2022-09-12T01:53:10;12.83;;;10.40;;
14474;SDS011;7323;50.848;4.334;2022-09-12T01:55:45;13.37;;;10.17;;
14474;SDS011;7323;50.848;4.334;2022-09-12T01:58:19;11.07;;;9.83;;
14474;SDS011;7323;50.848;4.334;2022-09-12T02:00:53;13.07;;;9.87;;
14474;SDS011;7323;50.848;4.334;2022-09-12T02:03:28;11.20;;;9.47;;
14474;SDS011;7323;50.848;4.334;2022-09-12T02:06:05;14.40;;;10.73;;
14474;SDS011;7323;50.848;4.334;2022-09-12T02:08:57;12.20;;;11.10;;
14474;SDS011;7323;50.848;4.334;2022-09-12T02:11:29;12.07;;;10.10;;
14474;SDS011;7323;50.848;4.334;2022-09-12T02:14:20;12.07;;;10.97;;
14474;SDS011;7323;50.848;4.334;2022-09-12T02:16:57;12.23;;;10.83;;
14474;SDS011;7323;50.848;4.334;2022-09-12T02:19:31;11.70;;;10.30;;
14474;SDS011;7323;50.848;4.334;2022-09-12T02:22:02;10.97;;;9.93;;
14474;SDS011;7323;50.848;4.334;2022-09-12T02:24:32;12.33;;;9.97;;
14474;SDS011;7323;50.848;4.334;2022-09-12T02:27:04;11.33;;;9.30;;
14474;SDS011;7323;50.848;4.334;2022-09-12T02:29:38;10.73;;;9.63;;
14474;SDS011;7323;50.848;4.334;2022-09-12T02:32:53;13.43;;;9.90;;
14474;SDS011;7323;50.848;4.334;2022-09-12T02:37:52;11.93;;;9.40;;
14474;SDS011;7323;50.848;4.334;2022-09-12T02:40:20;12.63;;;10.20;;
14474;SDS011;7323;50.848;4.334;2022-09-12T02:42:47;12.17;;;9.80;;
14474;SDS011;7323;50.848;4.334;2022-09-12T02:45:13;11.70;;;9.93;;
14474;SDS011;7323;50.848;4.334;2022-09-12T02:47:41;11.73;;;9.87;;
14474;SDS011;7323;50.848;4.334;2022-09-12T02:50:13;10.90;;;9.77;;
14474;SDS011;7323;50.848;4.334;2022-09-12T02:52:39;12.13;;;9.27;;
14474;SDS011;7323;50.848;4.334;2022-09-12T02:55:06;10.47;;;9.43;;
14474;SDS011;7323;50.848;4.334;2022-09-12T02:57:35;11.00;;;9.90;;
14474;SDS011;7323;50.848;4.334;2022-09-12T03:06:00;9.97;;;8.97;;
14474;SDS011;7323;50.848;4.334;2022-09-12T03:14:35;10.23;;;9.13;;
14474;SDS011;7323;50.848;4.334;2022-09-12T03:17:24;12.10;;;9.47;;
14474;SDS011;7323;50.848;4.334;2022-09-12T03:20:14;10.23;;;9.13;;
14474;SDS011;7323;50.848;4.334;2022-09-12T03:23:01;10.70;;;8.57;;
14474;SDS011;7323;50.848;4.334;2022-09-12T03:25:36;10.43;;;9.37;;
14474;SDS011;7323;50.848;4.334;2022-09-12T03:28:14;10.60;;;9.50;;
14474;SDS011;7323;50.848;4.334;2022-09-12T03:30:44;10.43;;;9.30;;
14474;SDS011;7323;50.848;4.334;2022-09-12T03:33:18;11.33;;;10.13;;
14474;SDS011;7323;50.848;4.334;2022-09-12T03:35:46;11.07;;;9.87;;
14474;SDS011;7323;50.848;4.334;2022-09-12T03:38:13;12.23;;;10.40;;
14474;SDS011;7323;50.848;4.334;2022-09-12T03:40:39;12.83;;;11.23;;
14474;SDS011;7323;50.848;4.334;2022-09-12T03:43:05;10.90;;;9.80;;
14474;SDS011;7323;50.848;4.334;2022-09-12T03:45:32;13.57;;;10.37;;
14474;SDS011;7323;50.848;4.334;2022-09-12T03:48:00;11.23;;;10.13;;
14474;SDS011;7323;50.848;4.334;2022-09-12T03:50:30;11.97;;;10.20;;
14474;SDS011;7323;50.848;4.334;2022-09-12T03:52:57;11.60;;;10.43;;
14474;SDS011;7323;50.848;4.334;2022-09-12T03:55:24;11.37;;;9.83;;
14474;SDS011;7323;50.848;4.334;2022-09-12T03:57:51;11.40;;;10.07;;
14474;SDS011;7323;50.848;4.334;2022-09-12T04:00:18;13.10;;;11.03;;
14474;SDS011;7323;50.848;4.334;2022-09-12T04:02:43;14.60;;;10.67;;
14474;SDS011;7323;50.848;4.334;2022-09-12T04:05:10;11.13;;;9.97;;
14474;SDS011;7323;50.848;4.334;2022-09-12T04:07:36;13.27;;;11.07;;
14474;SDS011;7323;50.848;4.334;2022-09-12T04:10:01;11.10;;;10.00;;
14474;SDS011;7323;50.848;4.334;2022-09-12T04:12:28;13.33;;;9.77;;
14474;SDS011;7323;50.848;4.334;2022-09-12T04:14:54;12.53;;;10.30;;
14474;SDS011;7323;50.848;4.334;2022-09-12T04:17:21;10.90;;;9.80;;
14474;SDS011;7323;50.848;4.334;2022-09-12T04:19:46;11.27;;;9.63;;
14474;SDS011;7323;50.848;4.334;2022-09-12T04:22:12;12.73;;;9.67;;
14474;SDS011;7323;50.848;4.334;2022-09-12T04:24:37;10.83;;;9.73;;
14474;SDS011;7323;50.848;4.334;2022-09-12T04:27:03;11.00;;;9.77;;
14474;SDS011;7323;50.848;4.334;2022-09-12T04:29:29;12.20;;;10.07;;
14474;SDS011;7323;50.848;4.334;2022-09-12T04:31:55;14.63;;;11.23;;
14474;SDS011;7323;50.848;4.334;2022-09-12T04:34:21;11.90;;;10.70;;
14474;SDS011;7323;50.848;4.334;2022-09-12T04:36:47;13.77;;;11.00;;
14474;SDS011;7323;50.848;4.334;2022-09-12T04:39:14;10.97;;;9.87;;
14474;SDS011;7323;50.848;4.334;2022-09-12T04:41:41;15.17;;;10.77;;
14474;SDS011;7323;50.848;4.334;2022-09-12T04:44:08;12.73;;;10.60;;
14474;SDS011;7323;50.848;4.334;2022-09-12T04:46:37;14.63;;;10.43;;
14474;SDS011;7323;50.848;4.334;2022-09-12T04:49:06;15.00;;;10.87;;
14474;SDS011;7323;50.848;4.334;2022-09-12T04:51:32;12.83;;;9.93;;
14474;SDS011;7323;50.848;4.334;2022-09-12T04:54:01;15.60;;;11.00;;
14474;SDS011;7323;50.848;4.334;2022-09-12T04:56:29;16.00;;;11.43;;
14474;SDS011;7323;50.848;4.334;2022-09-12T04:58:58;18.37;;;11.80;;
14474;SDS011;7323;50.848;4.334;2022-09-12T05:01:25;15.50;;;11.77;;
14474;SDS011;7323;50.848;4.334;2022-09-12T05:03:54;14.47;;;11.73;;
14474;SDS011;7323;50.848;4.334;2022-09-12T05:06:22;15.13;;;12.53;;
14474;SDS011;7323;50.848;4.334;2022-09-12T05:08:49;23.90;;;12.50;;
14474;SDS011;7323;50.848;4.334;2022-09-12T05:11:17;16.80;;;12.40;;
14474;SDS011;7323;50.848;4.334;2022-09-12T05:13:45;15.53;;;11.70;;
14474;SDS011;7323;50.848;4.334;2022-09-12T05:16:11;15.23;;;12.07;;
14474;SDS011;7323;50.848;4.334;2022-09-12T05:18:40;15.53;;;12.40;;
14474;SDS011;7323;50.848;4.334;2022-09-12T05:21:09;16.43;;;11.87;;
14474;SDS011;7323;50.848;4.334;2022-09-12T05:23:36;14.07;;;12.30;;
14474;SDS011;7323;50.848;4.334;2022-09-12T05:26:03;14.37;;;12.43;;
14474;SDS011;7323;50.848;4.334;2022-09-12T05:28:34;16.60;;;12.70;;
14474;SDS011;7323;50.848;4.334;2022-09-12T05:33:31;17.80;;;13.00;;
14474;SDS011;7323;50.848;4.334;2022-09-12T05:35:58;19.83;;;12.97;;
14474;SDS011;7323;50.848;4.334;2022-09-12T05:38:24;16.87;;;12.67;;
14474;SDS011;7323;50.848;4.334;2022-09-12T05:41:01;14.73;;;12.30;;
14474;SDS011;7323;50.848;4.334;2022-09-12T05:43:38;14.37;;;12.80;;
14474;SDS011;7323;50.848;4.334;2022-09-12T05:46:07;16.53;;;12.20;;
14474;SDS011;7323;50.848;4.334;2022-09-12T05:48:39;14.37;;;12.27;;
14474;SDS011;7323;50.848;4.334;2022-09-12T05:51:09;18.80;;;12.93;;
14474;SDS011;7323;50.848;4.334;2022-09-12T05:53:38;16.60;;;11.60;;
14474;SDS011;7323;50.848;4.334;2022-09-12T05:56:12;14.50;;;11.87;;
14474;SDS011;7323;50.848;4.334;2022-09-12T05:58:46;15.20;;;11.37;;
14474;SDS011;7323;50.848;4.334;2022-09-12T06:01:20;22.87;;;15.00;;
14474;SDS011;7323;50.848;4.334;2022-09-12T06:03:54;18.13;;;14.27;;
14474;SDS011;7323;50.848;4.334;2022-09-12T06:06:21;19.13;;;14.23;;
14474;SDS011;7323;50.848;4.334;2022-09-12T06:08:50;15.03;;;12.27;;
14474;SDS011;7323;50.848;4.334;2022-09-12T06:11:22;18.57;;;11.70;;
14474;SDS011;7323;50.848;4.334;2022-09-12T06:13:52;16.03;;;11.73;;
14474;SDS011;7323;50.848;4.334;2022-09-12T06:16:21;13.97;;;11.20;;
14474;SDS011;7323;50.848;4.334;2022-09-12T06:22:01;12.60;;;10.67;;
14474;SDS011;7323;50.848;4.334;2022-09-12T06:24:38;14.57;;;11.47;;
14474;SDS011;7323;50.848;4.334;2022-09-12T06:33:22;21.00;;;12.73;;
14474;SDS011;7323;50.848;4.334;2022-09-12T06:35:51;16.50;;;12.10;;
14474;SDS011;7323;50.848;4.334;2022-09-12T06:38:17;15.60;;;12.53;;
14474;SDS011;7323;50.848;4.334;2022-09-12T06:46:49;14.30;;;11.27;;
14474;SDS011;7323;50.848;4.334;2022-09-12T06:49:29;13.30;;;10.77;;
14474;SDS011;7323;50.848;4.334;2022-09-12T06:51:58;15.43;;;11.03;;
14474;SDS011;7323;50.848;4.334;2022-09-12T06:57:10;12.47;;;10.70;;
14474;SDS011;7323;50.848;4.334;2022-09-12T06:59:40;15.60;;;10.80;;
14474;SDS011;7323;50.848;4.334;2022-09-12T07:05:11;14.90;;;10.60;;
14474;SDS011;7323;50.848;4.334;2022-09-12T07:07:40;14.57;;;10.13;;
14474;SDS011;7323;50.848;4.334;2022-09-12T07:10:07;14.20;;;10.33;;
14474;SDS011;7323;50.848;4.334;2022-09-12T07:18:01;12.17;;;9.30;;
14474;SDS011;7323;50.848;4.334;2022-09-12T07:20:28;14.97;;;9.50;;
14474;SDS011;7323;50.848;4.334;2022-09-12T07:22:57;18.77;;;9.03;;
14474;SDS011;7323;50.848;4.334;2022-09-12T07:25:24;13.53;;;9.07;;
14474;SDS011;7323;50.848;4.334;2022-09-12T07:27:51;15.53;;;9.37;;
14474;SDS011;7323;50.848;4.334;2022-09-12T07:30:18;12.50;;;7.77;;
14474;SDS011;7323;50.848;4.334;2022-09-12T07:32:43;11.73;;;7.13;;
14474;SDS011;7323;50.848;4.334;2022-09-12T07:35:09;9.30;;;7.27;;
14474;SDS011;7323;50.848;4.334;2022-09-12T07:40:03;9.47;;;7.20;;
14474;SDS011;7323;50.848;4.334;2022-09-12T07:48:09;7.23;;;6.07;;
14474;SDS011;7323;50.848;4.334;2022-09-12T07:56:18;7.53;;;5.33;;
14474;SDS011;7323;50.848;4.334;2022-09-12T07:58:49;7.13;;;5.00;;
14474;SDS011;7323;50.848;4.334;2022-09-12T08:01:18;9.13;;;5.70;;
14474;SDS011;7323;50.848;4.334;2022-09-12T08:03:46;7.40;;;5.27;;
14474;SDS011;7323;50.848;4.334;2022-09-12T08:06:17;6.47;;;4.90;;
14474;SDS011;7323;50.848;4.334;2022-09-12T08:08:44;5.60;;;5.00;;
14474;SDS011;7323;50.848;4.334;2022-09-12T08:11:12;7.83;;;4.47;;
14474;SDS011;7323;50.848;4.334;2022-09-12T08:13:41;8.50;;;4.37;;
14474;SDS011;7323;50.848;4.334;2022-09-12T08:16:17;6.90;;;4.60;;
14474;SDS011;7323;50.848;4.334;2022-09-12T08:18:46;6.10;;;4.77;;
14474;SDS011;7323;50.848;4.334;2022-09-12T08:23:50;7.40;;;5.43;;
14474;SDS011;7323;50.848;4.334;2022-09-12T08:26:23;7.43;;;4.87;;
14474;SDS011;7323;50.848;4.334;2022-09-12T08:28:52;9.50;;;5.10;;
14474;SDS011;7323;50.848;4.334;2022-09-12T08:31:19;8.57;;;6.17;;
14474;SDS011;7323;50.848;4.334;2022-09-12T08:33:48;8.73;;;5.17;;
14474;SDS011;7323;50.848;4.334;2022-09-12T08:36:19;8.03;;;6.00;;
14474;SDS011;7323;50.848;4.334;2022-09-12T08:38:47;9.83;;;6.17;;
14474;SDS011;7323;50.848;4.334;2022-09-12T08:49:03;8.87;;;5.87;;
14474;SDS011;7323;50.848;4.334;2022-09-12T08:51:33;8.33;;;6.20;;
14474;SDS011;7323;50.848;4.334;2022-09-12T08:53:59;9.30;;;5.93;;
14474;SDS011;7323;50.848;4.334;2022-09-12T08:56:30;9.20;;;5.43;;
14474;SDS011;7323;50.848;4.334;2022-09-12T08:59:02;8.63;;;4.70;;
14474;SDS011;7323;50.848;4.334;2022-09-12T09:10:02;8.00;;;5.00;;
14474;SDS011;7323;50.848;4.334;2022-09-12T09:18:19;10.13;;;4.73;;
14474;SDS011;7323;50.848;4.334;2022-09-12T09:20:53;9.43;;;4.43;;
14474;SDS011;7323;50.848;4.334;2022-09-12T09:23:25;6.50;;;4.40;;
14474;SDS011;7323;50.848;4.334;2022-09-12T09:26:12;8.47;;;4.23;;
14474;SDS011;7323;50.848;4.334;2022-09-12T09:28:56;9.27;;;4.63;;
14474;SDS011;7323;50.848;4.334;2022-09-12T09:31:31;6.23;;;3.90;;
14474;SDS011;7323;50.848;4.334;2022-09-12T09:34:19;7.00;;;4.27;;
14474;SDS011;7323;50.848;4.334;2022-09-12T09:45:38;7.87;;;3.70;;
14474;SDS011;7323;50.848;4.334;2022-09-12T09:48:14;6.23;;;3.70;;
14474;SDS011;7323;50.848;4.334;2022-09-12T09:50:42;6.03;;;3.30;;
14474;SDS011;7323;50.848;4.334;2022-09-12T09:53:21;6.60;;;3.60;;
14474;SDS011;7323;50.848;4.334;2022-09-12T09:55:57;6.37;;;3.43;;
14474;SDS011;7323;50.848;4.334;2022-09-12T09:58:50;7.43;;;3.67;;
14474;SDS011;7323;50.848;4.334;2022-09-12T10:01:16;5.17;;;3.17;;
14474;SDS011;7323;50.848;4.334;2022-09-12T10:03:52;5.13;;;3.50;;
14474;SDS011;7323;50.848;4.334;2022-09-12T10:09:06;4.10;;;2.23;;
14474;SDS011;7323;50.848;4.334;2022-09-12T10:11:44;5.63;;;2.60;;
14474;SDS011;7323;50.848;4.334;2022-09-12T10:14:26;4.30;;;2.57;;
14474;SDS011;7323;50.848;4.334;2022-09-12T10:17:25;4.57;;;2.90;;
14474;SDS011;7323;50.848;4.334;2022-09-12T10:22:58;5.83;;;2.90;;
14474;SDS011;7323;50.848;4.334;2022-09-12T10:25:26;4.13;;;2.73;;
14474;SDS011;7323;50.848;4.334;2022-09-12T10:27:56;4.17;;;2.50;;
14474;SDS011;7323;50.848;4.334;2022-09-12T10:30:24;5.63;;;2.97;;
14474;SDS011;7323;50.848;4.334;2022-09-12T10:32:55;4.73;;;2.47;;
14474;SDS011;7323;50.848;4.334;2022-09-12T10:35:28;3.23;;;2.27;;
14474;SDS011;7323;50.848;4.334;2022-09-12T10:38:09;3.83;;;2.10;;
14474;SDS011;7323;50.848;4.334;2022-09-12T10:40:54;5.17;;;2.50;;
14474;SDS011;7323;50.848;4.334;2022-09-12T10:43:29;6.20;;;2.40;;
14474;SDS011;7323;50.848;4.334;2022-09-12T10:46:19;3.57;;;2.23;;
14474;SDS011;7323;50.848;4.334;2022-09-12T10:48:48;4.10;;;2.43;;
14474;SDS011;7323;50.848;4.334;2022-09-12T10:51:38;4.93;;;2.67;;
14474;SDS011;7323;50.848;4.334;2022-09-12T10:54:04;3.87;;;2.40;;
14474;SDS011;7323;50.848;4.334;2022-09-12T11:13:21;3.20;;;2.30;;
14474;SDS011;7323;50.848;4.334;2022-09-12T11:24:15;5.53;;;2.20;;
14474;SDS011;7323;50.848;4.334;2022-09-12T11:29:50;5.67;;;2.10;;
14474;SDS011;7323;50.848;4.334;2022-09-12T11:40:00;4.13;;;2.20;;
14474;SDS011;7323;50.848;4.334;2022-09-12T11:42:36;6.13;;;2.20;;
14474;SDS011;7323;50.848;4.334;2022-09-12T11:45:14;2.83;;;1.80;;
14474;SDS011;7323;50.848;4.334;2022-09-12T11:47:44;3.70;;;1.93;;
14474;SDS011;7323;50.848;4.334;2022-09-12T11:50:17;2.90;;;1.50;;
14474;SDS011;7323;50.848;4.334;2022-09-12T11:53:11;2.70;;;1.57;;
14474;SDS011;7323;50.848;4.334;2022-09-12T11:58:27;3.20;;;1.60;;
14474;SDS011;7323;50.848;4.334;2022-09-12T12:01:02;3.57;;;1.60;;
14474;SDS011;7323;50.848;4.334;2022-09-12T12:03:42;2.90;;;1.70;;
14474;SDS011;7323;50.848;4.334;2022-09-12T12:08:57;7.32;;;4.35;;
14474;SDS011;7323;50.848;4.334;2022-09-12T12:11:31;2.57;;;1.53;;
14474;SDS011;7323;50.848;4.334;2022-09-12T12:14:01;3.27;;;1.70;;
14474;SDS011;7323;50.848;4.334;2022-09-12T12:16:30;3.70;;;1.90;;
14474;SDS011;7323;50.848;4.334;2022-09-12T12:19:03;2.75;;;1.70;;
14474;SDS011;7323;50.848;4.334;2022-09-12T12:21:45;2.63;;;1.70;;
14474;SDS011;7323;50.848;4.334;2022-09-12T12:24:24;3.40;;;1.90;;
14474;SDS011;7323;50.848;4.334;2022-09-12T12:35:44;3.17;;;1.83;;
14474;SDS011;7323;50.848;4.334;2022-09-12T12:41:19;11.52;;;3.42;;
14474;SDS011;7323;50.848;4.334;2022-09-12T12:43:44;3.15;;;1.75;;
14474;SDS011;7323;50.848;4.334;2022-09-12T12:46:11;3.67;;;1.67;;
14474;SDS011;7323;50.848;4.334;2022-09-12T13:02:38;2.63;;;1.50;;
14474;SDS011;7323;50.848;4.334;2022-09-12T13:05:21;3.28;;;1.65;;
14474;SDS011;7323;50.848;4.334;2022-09-12T13:07:53;3.23;;;2.00;;
14474;SDS011;7323;50.848;4.334;2022-09-12T13:10:24;4.13;;;2.30;;
14474;SDS011;7323;50.848;4.334;2022-09-12T13:12:53;5.17;;;1.93;;
14474;SDS011;7323;50.848;4.334;2022-09-12T13:15:43;3.30;;;1.53;;
14474;SDS011;7323;50.848;4.334;2022-09-12T13:18:13;3.60;;;1.77;;
14474;SDS011;7323;50.848;4.334;2022-09-12T13:21:06;2.42;;;1.60;;
14474;SDS011;7323;50.848;4.334;2022-09-12T13:23:38;2.80;;;1.60;;
14474;SDS011;7323;50.848;4.334;2022-09-12T13:26:11;2.22;;;1.48;;
14474;SDS011;7323;50.848;4.334;2022-09-12T13:28:47;3.67;;;1.95;;
14474;SDS011;7323;50.848;4.334;2022-09-12T13:33:49;3.47;;;1.40;;
14474;SDS011;7323;50.848;4.334;2022-09-12T13:42:48;3.90;;;1.42;;
14474;SDS011;7323;50.848;4.334;2022-09-12T13:48:01;4.20;;;1.85;;
14474;SDS011;7323;50.848;4.334;2022-09-12T13:50:29;2.38;;;1.30;;
14474;SDS011;7323;50.848;4.334;2022-09-12T13:53:02;1.80;;;1.13;;
14474;SDS011;7323;50.848;4.334;2022-09-12T13:55:44;3.78;;;1.67;;
14474;SDS011;7323;50.848;4.334;2022-09-12T14:00:58;6.38;;;2.42;;
14474;SDS011;7323;50.848;4.334;2022-09-12T14:03:37;2.25;;;1.63;;
14474;SDS011;7323;50.848;4.334;2022-09-12T14:06:23;2.20;;;1.60;;
14474;SDS011;7323;50.848;4.334;2022-09-12T14:08:49;3.65;;;1.50;;
14474;SDS011;7323;50.848;4.334;2022-09-12T14:11:23;2.70;;;1.35;;
14474;SDS011;7323;50.848;4.334;2022-09-12T14:13:53;2.47;;;1.38;;
14474;SDS011;7323;50.848;4.334;2022-09-12T14:16:22;2.92;;;1.33;;
14474;SDS011;7323;50.848;4.334;2022-09-12T14:18:51;3.28;;;1.90;;
14474;SDS011;7323;50.848;4.334;2022-09-12T14:21:25;3.45;;;1.27;;
14474;SDS011;7323;50.848;4.334;2022-09-12T14:24:00;3.85;;;1.40;;
14474;SDS011;7323;50.848;4.334;2022-09-12T14:26:29;2.47;;;1.10;;
14474;SDS011;7323;50.848;4.334;2022-09-12T14:28:59;4.68;;;1.40;;
14474;SDS011;7323;50.848;4.334;2022-09-12T14:31:29;4.97;;;1.80;;
14474;SDS011;7323;50.848;4.334;2022-09-12T14:34:10;4.50;;;1.48;;
14474;SDS011;7323;50.848;4.334;2022-09-12T14:36:49;7.63;;;2.05;;
14474;SDS011;7323;50.848;4.334;2022-09-12T14:41:49;5.85;;;1.85;;
14474;SDS011;7323;50.848;4.334;2022-09-12T14:44:25;4.82;;;1.35;;
14474;SDS011;7323;50.848;4.334;2022-09-12T14:49:30;3.15;;;1.33;;
14474;SDS011;7323;50.848;4.334;2022-09-12T14:52:02;2.50;;;1.02;;
14474;SDS011;7323;50.848;4.334;2022-09-12T14:57:03;4.70;;;1.70;;
14474;SDS011;7323;50.848;4.334;2022-09-12T14:59:36;4.70;;;1.52;;
14474;SDS011;7323;50.848;4.334;2022-09-12T15:07:43;10.30;;;5.13;;
14474;SDS011;7323;50.848;4.334;2022-09-12T15:12:47;5.13;;;2.05;;
14474;SDS011;7323;50.848;4.334;2022-09-12T15:15:15;5.45;;;1.30;;
14474;SDS011;7323;50.848;4.334;2022-09-12T15:17:43;7.53;;;1.70;;
14474;SDS011;7323;50.848;4.334;2022-09-12T15:20:14;5.05;;;1.52;;
14474;SDS011;7323;50.848;4.334;2022-09-12T15:22:39;2.92;;;1.40;;
14474;SDS011;7323;50.848;4.334;2022-09-12T15:25:11;5.10;;;1.75;;
14474;SDS011;7323;50.848;4.334;2022-09-12T15:27:44;2.92;;;1.63;;
14474;SDS011;7323;50.848;4.334;2022-09-12T15:30:10;2.53;;;1.50;;
14474;SDS011;7323;50.848;4.334;2022-09-12T15:32:41;6.43;;;1.80;;
14474;SDS011;7323;50.848;4.334;2022-09-12T15:35:18;3.55;;;1.58;;
14474;SDS011;7323;50.848;4.334;2022-09-12T15:37:53;1.98;;;1.23;;
14474;SDS011;7323;50.848;4.334;2022-09-12T15:40:18;1.98;;;1.23;;
14474;SDS011;7323;50.848;4.334;2022-09-12T15:42:46;2.13;;;1.38;;
14474;SDS011;7323;50.848;4.334;2022-09-12T15:45:25;4.30;;;1.75;;
14474;SDS011;7323;50.848;4.334;2022-09-12T15:47:54;3.75;;;1.38;;
14474;SDS011;7323;50.848;4.334;2022-09-12T15:50:25;2.97;;;1.42;;
14474;SDS011;7323;50.848;4.334;2022-09-12T15:53:14;2.65;;;1.30;;
14474;SDS011;7323;50.848;4.334;2022-09-12T15:55:40;2.30;;;1.20;;
14474;SDS011;7323;50.848;4.334;2022-09-12T16:00:37;4.03;;;1.05;;
14474;SDS011;7323;50.848;4.334;2022-09-12T16:03:08;2.88;;;1.52;;
14474;SDS011;7323;50.848;4.334;2022-09-12T16:05:48;2.97;;;1.27;;
14474;SDS011;7323;50.848;4.334;2022-09-12T16:08:17;2.95;;;1.20;;
14474;SDS011;7323;50.848;4.334;2022-09-12T16:10:42;2.80;;;1.10;;
14474;SDS011;7323;50.848;4.334;2022-09-12T16:13:14;2.58;;;1.40;;
14474;SDS011;7323;50.848;4.334;2022-09-12T16:18:28;4.22;;;1.33;;
14474;SDS011;7323;50.848;4.334;2022-09-12T16:20:56;5.95;;;1.95;;
14474;SDS011;7323;50.848;4.334;2022-09-12T16:23:22;3.15;;;1.55;;
14474;SDS011;7323;50.848;4.334;2022-09-12T16:28:30;3.55;;;1.50;;
14474;SDS011;7323;50.848;4.334;2022-09-12T16:31:01;4.88;;;1.42;;
14474;SDS011;7323;50.848;4.334;2022-09-12T16:33:30;3.17;;;1.98;;
14474;SDS011;7323;50.848;4.334;2022-09-12T16:39:02;2.83;;;1.80;;
14474;SDS011;7323;50.848;4.334;2022-09-12T16:41:28;3.95;;;2.00;;
14474;SDS011;7323;50.848;4.334;2022-09-12T16:43:54;4.03;;;2.20;;
14474;SDS011;7323;50.848;4.334;2022-09-12T16:46:24;4.68;;;1.73;;
14474;SDS011;7323;50.848;4.334;2022-09-12T16:48:54;2.10;;;1.50;;
14474;SDS011;7323;50.848;4.334;2022-09-12T16:51:22;3.17;;;1.98;;
14474;SDS011;7323;50.848;4.334;2022-09-12T16:53:56;5.45;;;2.20;;
14474;SDS011;7323;50.848;4.334;2022-09-12T16:56:22;5.93;;;2.00;;
14474;SDS011;7323;50.848;4.334;2022-09-12T16:58:48;3.08;;;1.50;;
14474;SDS011;7323;50.848;4.334;2022-09-12T17:01:15;3.95;;;1.55;;
14474;SDS011;7323;50.848;4.334;2022-09-12T17:03:45;3.92;;;1.50;;
14474;SDS011;7323;50.848;4.334;2022-09-12T17:06:15;3.78;;;2.10;;
14474;SDS011;7323;50.848;4.334;2022-09-12T17:08:50;2.88;;;1.27;;
14474;SDS011;7323;50.848;4.334;2022-09-12T17:11:29;2.83;;;1.70;;
14474;SDS011;7323;50.848;4.334;2022-09-12T17:14:12;2.55;;;1.55;;
14474;SDS011;7323;50.848;4.334;2022-09-12T17:16:39;2.10;;;1.42;;
14474;SDS011;7323;50.848;4.334;2022-09-12T17:19:12;5.40;;;1.58;;
14474;SDS011;7323;50.848;4.334;2022-09-12T17:21:53;4.53;;;1.58;;
14474;SDS011;7323;50.848;4.334;2022-09-12T17:24:20;4.40;;;1.88;;
14474;SDS011;7323;50.848;4.334;2022-09-12T17:26:47;2.95;;;1.70;;
14474;SDS011;7323;50.848;4.334;2022-09-12T17:29:13;5.22;;;1.75;;
14474;SDS011;7323;50.848;4.334;2022-09-12T17:31:41;4.93;;;1.80;;
14474;SDS011;7323;50.848;4.334;2022-09-12T17:34:11;4.22;;;2.00;;
14474;SDS011;7323;50.848;4.334;2022-09-12T17:36:41;4.32;;;2.00;;
14474;SDS011;7323;50.848;4.334;2022-09-12T17:39:10;2.38;;;1.50;;
14474;SDS011;7323;50.848;4.334;2022-09-12T17:41:37;4.47;;;1.80;;
14474;SDS011;7323;50.848;4.334;2022-09-12T17:44:02;4.25;;;1.80;;
14474;SDS011;7323;50.848;4.334;2022-09-12T17:46:33;6.40;;;1.90;;
14474;SDS011;7323;50.848;4.334;2022-09-12T17:49:00;6.10;;;2.10;;
14474;SDS011;7323;50.848;4.334;2022-09-12T17:57:03;1.85;;;1.45;;
14474;SDS011;7323;50.848;4.334;2022-09-12T17:59:29;4.43;;;2.00;;
14474;SDS011;7323;50.848;4.334;2022-09-12T18:01:56;5.03;;;2.00;;
14474;SDS011;7323;50.848;4.334;2022-09-12T18:04:38;2.70;;;1.70;;
14474;SDS011;7323;50.848;4.334;2022-09-12T18:07:05;3.92;;;1.70;;
14474;SDS011;7323;50.848;4.334;2022-09-12T18:09:31;5.97;;;1.60;;
14474;SDS011;7323;50.848;4.334;2022-09-12T18:12:00;4.35;;;2.03;;
14474;SDS011;7323;50.848;4.334;2022-09-12T18:14:26;4.65;;;2.08;;
14474;SDS011;7323;50.848;4.334;2022-09-12T18:16:53;4.93;;;2.00;;
14474;SDS011;7323;50.848;4.334;2022-09-12T18:19:21;6.57;;;3.10;;
14474;SDS011;7323;50.848;4.334;2022-09-12T18:21:47;13.23;;;4.57;;
14474;SDS011;7323;50.848;4.334;2022-09-12T18:24:13;6.22;;;3.10;;
14474;SDS011;7323;50.848;4.334;2022-09-12T18:26:39;6.18;;;3.50;;
14474;SDS011;7323;50.848;4.334;2022-09-12T18:29:05;6.30;;;4.00;;
14474;SDS011;7323;50.848;4.334;2022-09-12T18:31:32;13.60;;;7.75;;
14474;SDS011;7323;50.848;4.334;2022-09-12T18:33:58;6.22;;;3.40;;
14474;SDS011;7323;50.848;4.334;2022-09-12T18:36:24;7.90;;;4.15;;
14474;SDS011;7323;50.848;4.334;2022-09-12T18:38:54;7.10;;;4.10;;
14474;SDS011;7323;50.848;4.334;2022-09-12T18:41:25;11.13;;;4.20;;
14474;SDS011;7323;50.848;4.334;2022-09-12T18:43:56;8.07;;;4.30;;
14474;SDS011;7323;50.848;4.334;2022-09-12T18:46:24;13.03;;;4.77;;
14474;SDS011;7323;50.848;4.334;2022-09-12T18:48:51;9.07;;;4.33;;
14474;SDS011;7323;50.848;4.334;2022-09-12T18:51:23;6.53;;;3.30;;
14474;SDS011;7323;50.848;4.334;2022-09-12T18:53:52;7.25;;;3.85;;
14474;SDS011;7323;50.848;4.334;2022-09-12T18:56:20;6.57;;;3.90;;
14474;SDS011;7323;50.848;4.334;2022-09-12T18:58:51;7.17;;;4.13;;
14474;SDS011;7323;50.848;4.334;2022-09-12T19:01:22;7.20;;;4.07;;
14474;SDS011;7323;50.848;4.334;2022-09-12T19:03:53;7.90;;;4.17;;
14474;SDS011;7323;50.848;4.334;2022-09-12T19:06:24;13.33;;;6.17;;
14474;SDS011;7323;50.848;4.334;2022-09-12T19:08:54;12.17;;;5.30;;
14474;SDS011;7323;50.848;4.334;2022-09-12T19:11:21;8.47;;;5.40;;
14474;SDS011;7323;50.848;4.334;2022-09-12T19:13:49;9.73;;;6.43;;
14474;SDS011;7323;50.848;4.334;2022-09-12T19:16:20;15.20;;;6.90;;
14474;SDS011;7323;50.848;4.334;2022-09-12T19:18:48;9.40;;;5.77;;
14474;SDS011;7323;50.848;4.334;2022-09-12T19:21:17;9.50;;;4.20;;